Terminal Aerodrome Forecast
Issued by NWS

Home | Current Version | Previous Version | Text Only | Print | Product List | Glossary On
Versions: 1 2 3 4 5 6 7 8 9 10 11 12
922
FTUS46 KHNX 052320
TAFBFL
TAF
KBFL 052320Z 0600/0624 33009KT P6SM -SHRA SCT030 BKN050
      TEMPO 0600/0604 3SM TSRA BKN025CB
     FM061800 VRB05KT P6SM VCSH BKN040=

USA.gov is the U.S. government's official web portal to all federal, state and local government web resources and services.